createdAt,value
2019-01-24T00:04:38.751Z,38.90
2019-01-24T00:09:41.226Z,42.10
2019-01-24T00:14:43.696Z,38.00
2019-01-24T00:19:46.221Z,40.00
2019-01-24T00:24:48.641Z,38.83
2019-01-24T00:29:51.105Z,41.30
2019-01-24T00:34:53.560Z,40.83
2019-01-24T00:39:56.014Z,38.83
2019-01-24T00:44:58.467Z,39.10
2019-01-24T00:50:00.921Z,37.00
2019-01-24T00:55:03.386Z,38.37
2019-01-24T01:00:05.856Z,37.77
2019-01-24T01:05:08.316Z,38.67
2019-01-24T01:10:10.779Z,37.80
2019-01-24T01:15:13.225Z,37.43
2019-01-24T01:20:15.698Z,37.57
2019-01-24T01:25:18.146Z,39.83
2019-01-24T01:30:20.628Z,39.37
2019-01-24T01:35:23.078Z,36.83
2019-01-24T01:40:25.531Z,36.80
2019-01-24T01:45:28.072Z,35.60
2019-01-24T01:50:30.527Z,37.20
2019-01-24T01:55:32.994Z,35.87
2019-01-24T02:00:35.445Z,34.73
2019-01-24T02:05:37.904Z,35.70
2019-01-24T02:10:40.353Z,36.60
2019-01-24T02:15:42.808Z,34.37
2019-01-24T02:20:45.266Z,34.60
2019-01-24T02:25:47.717Z,33.63
2019-01-24T02:30:50.168Z,34.07
2019-01-24T02:35:52.631Z,35.90
2019-01-24T02:40:55.080Z,36.70
2019-01-24T02:45:57.534Z,36.37
2019-01-24T02:50:59.989Z,35.60
2019-01-24T02:56:02.444Z,35.50
2019-01-24T03:01:04.890Z,36.10
2019-01-24T03:06:07.352Z,38.30
2019-01-24T03:11:09.832Z,36.50
2019-01-24T03:16:12.293Z,36.83
2019-01-24T03:21:14.785Z,35.67
2019-01-24T03:26:17.258Z,35.97
2019-01-24T03:31:19.724Z,36.73
2019-01-24T03:36:22.185Z,37.40
2019-01-24T03:41:24.641Z,37.00
2019-01-24T03:46:27.106Z,35.70
2019-01-24T03:51:29.568Z,35.50
2019-01-24T03:56:32.021Z,34.93
2019-01-24T04:01:34.500Z,36.47
2019-01-24T04:06:36.955Z,36.10
2019-01-24T04:11:39.414Z,38.33
2019-01-24T04:16:41.850Z,36.20
2019-01-24T04:21:44.321Z,36.37
2019-01-24T04:26:46.795Z,37.07
2019-01-24T04:31:49.249Z,37.13
2019-01-24T04:36:53.447Z,37.57
2019-01-24T04:41:54.163Z,38.83
2019-01-24T04:46:56.780Z,37.83
2019-01-24T04:51:59.229Z,38.07
2019-01-24T04:57:01.709Z,37.13
2019-01-24T05:02:04.159Z,37.73
2019-01-24T05:07:06.609Z,38.70
2019-01-24T05:12:09.072Z,37.23
2019-01-24T05:17:11.541Z,38.33
2019-01-24T05:22:14.123Z,38.10
2019-01-24T05:27:16.574Z,38.43
2019-01-24T05:32:19.035Z,37.03
2019-01-24T05:37:21.495Z,38.50
2019-01-24T05:42:23.960Z,41.00
2019-01-24T05:47:26.428Z,39.33
2019-01-24T05:52:28.898Z,38.43
2019-01-24T05:57:31.355Z,38.83
2019-01-24T06:02:33.818Z,38.53
2019-01-24T06:07:36.283Z,40.47
2019-01-24T06:12:38.729Z,37.47
2019-01-24T06:17:41.206Z,38.80
2019-01-24T06:22:43.669Z,39.13
2019-01-24T06:27:46.121Z,40.67
2019-01-24T06:32:48.590Z,41.30
2019-01-24T06:37:51.084Z,41.63
2019-01-24T06:42:53.566Z,41.77
2019-01-24T06:47:56.021Z,40.47
2019-01-24T06:52:58.479Z,42.83
2019-01-24T06:58:00.992Z,43.00
2019-01-24T07:03:03.448Z,43.70
2019-01-24T07:08:05.922Z,45.20
2019-01-24T07:13:08.388Z,42.30
2019-01-24T07:18:10.860Z,40.47
2019-01-24T07:23:13.442Z,40.70
2019-01-24T07:28:15.887Z,39.80
2019-01-24T07:33:18.481Z,39.93
2019-01-24T07:38:20.950Z,38.73
2019-01-24T07:43:23.399Z,39.37
2019-01-24T07:48:25.850Z,38.90
2019-01-24T07:53:28.300Z,38.13
2019-01-24T07:58:30.757Z,38.10
2019-01-24T08:03:33.200Z,39.67
2019-01-24T08:08:35.678Z,38.53
2019-01-24T08:13:38.136Z,37.73
2019-01-24T08:18:40.593Z,38.00
2019-01-24T08:23:43.057Z,38.07
2019-01-24T08:28:45.507Z,39.60
2019-01-24T08:33:47.968Z,38.53
2019-01-24T08:38:50.421Z,39.73
2019-01-24T08:43:52.877Z,41.90
2019-01-24T08:48:55.342Z,41.10
2019-01-24T08:53:57.807Z,40.17
2019-01-24T08:59:00.280Z,42.67
2019-01-24T09:04:02.757Z,41.97
2019-01-24T09:09:05.222Z,41.90
2019-01-24T09:14:07.806Z,42.67
2019-01-24T09:19:10.250Z,43.60
2019-01-24T09:24:12.711Z,41.40
2019-01-24T09:29:15.177Z,44.10
2019-01-24T09:34:17.634Z,43.03
2019-01-24T09:39:20.119Z,42.23
2019-01-24T09:44:22.557Z,43.47
2019-01-24T09:49:25.025Z,44.93
2019-01-24T09:54:27.455Z,44.77
2019-01-24T09:59:29.917Z,44.87
2019-01-24T10:04:32.380Z,44.87
2019-01-24T10:09:34.832Z,44.17
2019-01-24T10:14:37.293Z,45.03
2019-01-24T10:19:39.753Z,45.40
2019-01-24T10:24:42.214Z,46.00
2019-01-24T10:29:44.678Z,46.60
2019-01-24T10:34:47.136Z,45.53
2019-01-24T10:39:49.593Z,45.10
2019-01-24T10:44:52.059Z,46.30
2019-01-24T10:49:54.539Z,46.00
2019-01-24T10:54:57.148Z,48.43
2019-01-24T10:59:59.615Z,48.07
2019-01-24T11:05:02.096Z,48.20
2019-01-24T11:10:04.550Z,47.20
2019-01-24T11:15:09.864Z,47.33
2019-01-24T11:20:12.263Z,49.57
2019-01-24T11:25:14.730Z,50.10
2019-01-24T11:30:25.969Z,53.00
2019-01-24T11:35:31.145Z,50.10
2019-01-24T11:40:33.615Z,50.67
2019-01-24T11:45:36.082Z,49.77
2019-01-24T11:50:38.551Z,49.93
2019-01-24T11:55:41.049Z,51.40
2019-01-24T12:00:43.516Z,50.83
2019-01-24T12:05:45.979Z,49.57
2019-01-24T12:10:48.432Z,50.27
2019-01-24T12:15:50.910Z,51.33
2019-01-24T12:20:53.365Z,50.07
2019-01-24T12:25:55.855Z,48.90
2019-01-24T12:30:58.331Z,45.97
2019-01-24T12:36:00.795Z,47.70
2019-01-24T12:41:03.262Z,47.47
2019-01-24T12:46:05.716Z,46.83
2019-01-24T12:51:08.180Z,50.53
2019-01-24T12:56:10.684Z,48.67
2019-01-24T13:01:13.152Z,49.77
2019-01-24T13:06:15.667Z,49.97
2019-01-24T13:11:18.146Z,48.63
2019-01-24T13:16:20.629Z,46.43
2019-01-24T13:21:23.103Z,54.60
2019-01-24T13:26:25.592Z,51.37
2019-01-24T13:31:28.069Z,49.37
2019-01-24T13:36:30.565Z,50.23
2019-01-24T13:41:33.039Z,50.47
2019-01-24T13:46:35.521Z,49.77
2019-01-24T13:51:37.980Z,47.87
2019-01-24T13:56:40.466Z,49.40
2019-01-24T14:01:42.955Z,49.47
2019-01-24T14:06:45.430Z,49.07
2019-01-24T14:11:47.935Z,49.20
2019-01-24T14:16:50.426Z,50.63
2019-01-24T14:21:52.892Z,48.37
2019-01-24T14:26:55.368Z,47.77
2019-01-24T14:31:57.959Z,47.57
2019-01-24T14:37:01.000Z,51.07
2019-01-24T14:42:03.468Z,51.10
2019-01-24T14:47:05.928Z,51.10
2019-01-24T14:52:08.436Z,51.43
2019-01-24T14:57:10.926Z,54.97
2019-01-24T15:02:13.413Z,53.03
2019-01-24T15:07:15.890Z,48.80
2019-01-24T15:12:18.363Z,48.50
2019-01-24T15:17:20.838Z,47.80
2019-01-24T15:22:23.340Z,48.30
2019-01-24T15:27:25.789Z,47.40
2019-01-24T15:32:28.278Z,47.80
2019-01-24T15:37:30.747Z,47.13
2019-01-24T15:42:33.237Z,46.53
2019-01-24T15:47:35.723Z,48.00
2019-01-24T15:52:38.213Z,46.70
2019-01-24T15:57:40.689Z,49.47
2019-01-24T16:02:43.159Z,46.73
2019-01-24T16:07:45.661Z,48.20
2019-01-24T16:12:48.124Z,45.77
2019-01-24T16:17:50.587Z,50.47
2019-01-24T16:22:53.093Z,49.53
2019-01-24T16:27:55.613Z,49.50
2019-01-24T16:32:58.047Z,48.90
2019-01-24T16:38:00.525Z,50.63
2019-01-24T16:43:02.990Z,45.57
2019-01-24T16:48:05.566Z,45.50
2019-01-24T16:53:08.039Z,46.03
2019-01-24T16:58:10.514Z,44.23
2019-01-24T17:03:12.987Z,45.50
2019-01-24T17:08:16.725Z,43.67
2019-01-24T17:13:17.948Z,44.77
2019-01-24T17:18:20.402Z,48.77
2019-01-24T17:23:22.888Z,47.23
2019-01-24T17:28:25.351Z,45.57
2019-01-24T17:33:27.847Z,48.13
2019-01-24T17:38:30.336Z,53.77
2019-01-24T17:43:32.803Z,52.43
2019-01-24T17:48:35.313Z,58.33
2019-01-24T17:53:37.796Z,53.40
2019-01-24T17:58:40.282Z,55.67
2019-01-24T18:03:42.753Z,63.17
2019-01-24T18:08:45.292Z,61.63
2019-01-24T18:13:47.788Z,53.57
2019-01-24T18:18:50.262Z,54.30
2019-01-24T18:23:52.750Z,54.30
2019-01-24T18:28:55.256Z,57.30
2019-01-24T18:33:57.734Z,65.57
2019-01-24T18:39:00.226Z,56.07
2019-01-24T18:44:02.707Z,54.63
2019-01-24T18:49:05.220Z,75.27
2019-01-24T18:54:07.697Z,59.53
2019-01-24T18:59:10.189Z,54.63
2019-01-24T19:04:12.675Z,58.97
2019-01-24T19:09:15.186Z,59.47
2019-01-24T19:14:17.665Z,57.90
2019-01-24T19:19:20.151Z,57.93
2019-01-24T19:24:22.687Z,59.67
2019-01-24T19:29:25.183Z,60.30
2019-01-24T19:34:27.818Z,58.63
2019-01-24T19:39:30.318Z,60.87
2019-01-24T19:44:32.850Z,61.00
2019-01-24T19:49:35.317Z,69.60
2019-01-24T19:54:38.375Z,62.20
2019-01-24T19:59:41.978Z,59.90
2019-01-24T20:04:44.509Z,57.93
2019-01-24T20:09:46.981Z,59.40
2019-01-24T20:14:49.468Z,57.93
2019-01-24T20:19:51.970Z,57.57
2019-01-24T20:24:54.458Z,65.97
2019-01-24T20:29:56.944Z,58.70
2019-01-24T20:34:59.432Z,58.93
2019-01-24T20:40:01.941Z,55.93
2019-01-24T20:45:04.436Z,63.20
2019-01-24T20:50:06.898Z,61.73
2019-01-24T20:55:12.307Z,59.33
2019-01-24T21:00:17.829Z,57.27
2019-01-24T21:05:20.310Z,58.87
2019-01-24T21:10:22.779Z,55.53
2019-01-24T21:15:25.271Z,54.03
2019-01-24T21:20:27.761Z,54.40
2019-01-24T21:25:30.247Z,56.43
2019-01-24T21:30:35.360Z,53.50
2019-01-24T21:35:37.821Z,53.83
2019-01-24T21:40:40.401Z,53.80
2019-01-24T21:45:42.864Z,57.10
2019-01-24T21:50:45.345Z,56.60
2019-01-24T21:55:47.883Z,56.33
2019-01-24T22:00:50.365Z,56.17
2019-01-24T22:05:52.863Z,54.23
2019-01-24T22:10:55.341Z,54.10
2019-01-24T22:15:58.166Z,51.93
2019-01-24T22:21:00.626Z,54.30
2019-01-24T22:26:03.102Z,51.63
2019-01-24T22:31:05.573Z,53.00
2019-01-24T22:36:08.046Z,52.70
2019-01-24T22:41:10.508Z,49.50
2019-01-24T22:46:12.969Z,54.90
2019-01-24T22:51:15.452Z,54.90
2019-01-24T22:56:17.938Z,55.70
2019-01-24T23:01:32.208Z,57.17
2019-01-24T23:06:34.709Z,51.40
2019-01-24T23:11:37.152Z,49.17
2019-01-24T23:16:39.632Z,45.57
2019-01-24T23:21:42.072Z,46.67
2019-01-24T23:26:44.558Z,44.73
2019-01-24T23:31:46.991Z,43.17
2019-01-24T23:36:49.452Z,41.20
2019-01-24T23:41:51.893Z,38.90
2019-01-24T23:46:54.351Z,38.27
2019-01-24T23:51:56.965Z,38.80
2019-01-24T23:56:59.421Z,37.23
